Station Historical Data
 
Daily Summary for January 20, 2018 Units:  English    Metric   Both
« Previous Day
Next Day »
Daily Weekly Monthly Yearly Custom
  Current: High: Low: Average:
Temperature: 33.3 °F 33.3 °F 31.2 °F 32.3 °F
Dew Point: 29.0 °F 31.1 °F 27.4 °F 29.2 °F
Humidity: 84 % 93 % 82 % 88 %
Wind Speed: 1.0 mph 11.0 mph 0.0 mph 1.6 mph
Wind Gust: 5.0 mph 13.0 mph - -
Wind:ESE - - East
Pressure: 30.19 in 30.19 in 30.10 in -
Precipitation: 0.00 in      
Historical Graphs
 
 
Tabular Data for January 20, 2018
Time Temperature Dew Point Pressure Wind Wind Speed Wind Gust Humidity Rainfall Rate (Hourly) solar
00:04 32.9 °F 30.8 °F 30.12 in Calm     92 % 0.00 in 0.00 W/m2
00:09 32.9 °F 30.8 °F 30.12 in Calm     92 % 0.00 in 0.00 W/m2
00:14 32.8 °F 30.7 °F 30.12 in Calm     92 % 0.00 in 0.00 W/m2
00:19 32.8 °F 30.7 °F 30.11 in Calm     92 % 0.00 in 0.00 W/m2
00:24 32.8 °F 30.7 °F 30.11 in Calm     92 % 0.00 in 0.00 W/m2
00:30 32.8 °F 30.7 °F 30.11 in Calm     92 % 0.00 in 0.00 W/m2
00:35 32.7 °F 30.6 °F 30.11 in NE 4.0 mph 5.0 mph 92 % 0.00 in 0.00 W/m2
00:40 32.7 °F 30.6 °F 30.11 in NE 4.0 mph 4.0 mph 92 % 0.00 in 0.00 W/m2
00:45 32.7 °F 30.9 °F 30.11 in Calm   4.0 mph 93 % 0.00 in 0.00 W/m2
00:50 32.7 °F 30.9 °F 30.11 in Calm   4.0 mph 93 % 0.00 in 0.00 W/m2
00:55 32.7 °F 30.9 °F 30.11 in Calm   7.0 mph 93 % 0.00 in 0.00 W/m2
01:00 32.8 °F 31.0 °F 30.11 in ENE 3.0 mph 4.0 mph 93 % 0.00 in 0.00 W/m2
01:05 32.8 °F 31.0 °F 30.11 in Calm   5.0 mph 93 % 0.00 in 0.00 W/m2
01:10 32.8 °F 31.0 °F 30.11 in Calm   2.0 mph 93 % 0.00 in 0.00 W/m2
01:15 32.9 °F 31.1 °F 30.11 in Calm   2.0 mph 93 % 0.00 in 0.00 W/m2
01:20 32.9 °F 31.1 °F 30.11 in Calm   6.0 mph 93 % 0.00 in 0.00 W/m2
01:25 32.9 °F 31.1 °F 30.11 in Calm   6.0 mph 93 % 0.00 in 0.00 W/m2
01:30 32.9 °F 30.8 °F 30.11 in Calm   5.0 mph 92 % 0.00 in 0.00 W/m2
01:35 32.9 °F 30.8 °F 30.11 in Calm   6.0 mph 92 % 0.00 in 0.00 W/m2
01:40 32.9 °F 30.8 °F 30.11 in Calm   6.0 mph 92 % 0.00 in 0.00 W/m2
01:45 32.9 °F 30.8 °F 30.11 in Calm   7.0 mph 92 % 0.00 in 0.00 W/m2
01:50 32.9 °F 30.8 °F 30.11 in Calm   7.0 mph 92 % 0.00 in 0.00 W/m2
01:55 32.9 °F 30.6 °F 30.11 in ESE 4.0 mph 13.0 mph 91 % 0.00 in 0.00 W/m2
02:00 32.9 °F 30.6 °F 30.11 in ESE 7.0 mph 11.0 mph 91 % 0.00 in 0.00 W/m2
02:05 33.0 °F 30.7 °F 30.10 in ESE 1.0 mph 11.0 mph 91 % 0.00 in 0.00 W/m2
02:10 33.0 °F 30.7 °F 30.11 in Calm   11.0 mph 91 % 0.00 in 0.00 W/m2
02:15 33.0 °F 30.7 °F 30.11 in Calm   13.0 mph 91 % 0.00 in 0.00 W/m2
02:20 33.0 °F 30.7 °F 30.11 in Calm   8.0 mph 91 % 0.00 in 0.00 W/m2
02:25 33.0 °F 30.4 °F 30.11 in Calm   12.0 mph 90 % 0.00 in 0.00 W/m2
02:30 32.9 °F 30.3 °F 30.11 in East 5.0 mph 9.0 mph 90 % 0.00 in 0.00 W/m2
02:35 32.9 °F 30.3 °F 30.11 in Calm   8.0 mph 90 % 0.00 in 0.00 W/m2
02:40 32.9 °F 30.3 °F 30.11 in East 5.0 mph 9.0 mph 90 % 0.00 in 0.00 W/m2
02:45 32.8 °F 29.6 °F 30.11 in ENE 6.0 mph 7.0 mph 88 % 0.00 in 0.00 W/m2
02:50 32.8 °F 29.9 °F 30.11 in Calm   7.0 mph 89 % 0.00 in 0.00 W/m2
02:55 32.8 °F 30.2 °F 30.11 in Calm   6.0 mph 90 % 0.00 in 0.00 W/m2
03:00 32.7 °F 30.1 °F 30.11 in ENE 5.0 mph 6.0 mph 90 % 0.00 in 0.00 W/m2
03:05 32.6 °F 30.0 °F 30.11 in Calm   5.0 mph 90 % 0.00 in 0.00 W/m2
03:10 32.5 °F 29.9 °F 30.11 in Calm   5.0 mph 90 % 0.00 in 0.00 W/m2
03:15 32.4 °F 30.1 °F 30.11 in Calm     91 % 0.00 in 0.00 W/m2
03:20 32.3 °F 29.7 °F 30.11 in ENE 2.0 mph 2.0 mph 90 % 0.00 in 0.00 W/m2
03:25 32.1 °F 29.5 °F 30.11 in ENE 3.0 mph 3.0 mph 90 % 0.00 in 0.00 W/m2
03:30 32.0 °F 29.4 °F 30.11 in Calm     90 % 0.00 in 0.00 W/m2
03:35 31.9 °F 29.3 °F 30.11 in Calm   2.0 mph 90 % 0.00 in 0.00 W/m2
03:40 31.9 °F 29.3 °F 30.11 in ENE 3.0 mph 3.0 mph 90 % 0.00 in 0.00 W/m2
03:45 31.9 °F 29.3 °F 30.11 in East 4.0 mph 6.0 mph 90 % 0.00 in 0.00 W/m2
03:50 31.9 °F 29.3 °F 30.11 in Calm     90 % 0.00 in 0.00 W/m2
03:55 31.9 °F 29.0 °F 30.11 in Calm     89 % 0.00 in 0.00 W/m2
04:00 31.8 °F 28.9 °F 30.11 in Calm     89 % 0.00 in 0.00 W/m2
04:05 31.7 °F 29.1 °F 30.11 in Calm     90 % 0.00 in 0.00 W/m2
04:10 31.7 °F 28.8 °F 30.11 in Calm     89 % 0.00 in 0.00 W/m2
04:15 31.6 °F 29.0 °F 30.12 in Calm     90 % 0.00 in 0.00 W/m2
04:20 31.6 °F 28.7 °F 30.12 in Calm     89 % 0.00 in 0.00 W/m2
04:25 31.6 °F 28.7 °F 30.12 in Calm     89 % 0.00 in 0.00 W/m2
04:30 31.5 °F 28.4 °F 30.12 in Calm     88 % 0.00 in 0.00 W/m2
04:35 31.5 °F 28.6 °F 30.12 in Calm     89 % 0.00 in 0.00 W/m2
04:40 31.4 °F 28.5 °F 30.12 in Calm     89 % 0.00 in 0.00 W/m2
04:46 31.4 °F 28.3 °F 30.12 in East 1.0 mph 4.0 mph 88 % 0.00 in 0.00 W/m2
04:50 31.2 °F 28.1 °F 30.12 in Calm   5.0 mph 88 % 0.00 in 0.00 W/m2
04:56 31.2 °F 28.3 °F 30.12 in East 5.0 mph 6.0 mph 89 % 0.00 in 0.00 W/m2
05:01 31.2 °F 28.3 °F 30.12 in East 4.0 mph 5.0 mph 89 % 0.00 in 0.00 W/m2
05:06 31.2 °F 28.3 °F 30.12 in Calm     89 % 0.00 in 0.00 W/m2
05:11 31.3 °F 28.7 °F 30.12 in East 5.0 mph 6.0 mph 90 % 0.00 in 0.00 W/m2
05:16 31.3 °F 28.4 °F 30.12 in Calm   6.0 mph 89 % 0.00 in 0.00 W/m2
05:21 31.4 °F 28.5 °F 30.12 in East 2.0 mph 5.0 mph 89 % 0.00 in 0.00 W/m2
05:26 31.5 °F 28.4 °F 30.12 in East 11.0 mph 13.0 mph 88 % 0.00 in 0.00 W/m2
05:31 31.5 °F 28.6 °F 30.12 in Calm   8.0 mph 89 % 0.00 in 0.00 W/m2
05:36 31.6 °F 28.5 °F 30.12 in East 2.0 mph 7.0 mph 88 % 0.00 in 0.00 W/m2
05:41 31.7 °F 28.8 °F 30.12 in East 4.0 mph 8.0 mph 89 % 0.00 in 0.00 W/m2
05:46 31.7 °F 28.6 °F 30.12 in East 4.0 mph 7.0 mph 88 % 0.00 in 0.00 W/m2
05:51 31.7 °F 28.6 °F 30.13 in Calm   1.0 mph 88 % 0.00 in 0.00 W/m2
05:56 31.8 °F 28.4 °F 30.13 in Calm   7.0 mph 87 % 0.00 in 0.00 W/m2
06:01 31.9 °F 28.5 °F 30.13 in Calm     87 % 0.00 in 0.00 W/m2
06:06 31.9 °F 28.5 °F 30.13 in Calm   4.0 mph 87 % 0.00 in 0.00 W/m2
06:11 32.0 °F 28.3 °F 30.13 in Calm   8.0 mph 86 % 0.00 in 0.00 W/m2
06:16 32.0 °F 28.3 °F 30.13 in East 2.0 mph 7.0 mph 86 % 0.00 in 0.00 W/m2
06:21 32.1 °F 28.4 °F 30.13 in East 5.0 mph 8.0 mph 86 % 0.00 in 0.00 W/m2
06:26 32.1 °F 28.1 °F 30.14 in Calm   7.0 mph 85 % 0.00 in 0.00 W/m2
06:31 32.2 °F 28.2 °F 30.14 in Calm   8.0 mph 85 % 0.00 in 0.00 W/m2
06:36 32.2 °F 27.9 °F 30.14 in ESE 2.0 mph 8.0 mph 84 % 0.00 in 0.00 W/m2
06:41 32.3 °F 28.0 °F 30.14 in ESE 7.0 mph 7.0 mph 84 % 0.00 in 0.00 W/m2
06:46 32.3 °F 28.3 °F 30.14 in ESE 5.0 mph 5.0 mph 85 % 0.00 in 0.00 W/m2
06:51 32.3 °F 28.0 °F 30.14 in ESE 8.0 mph 8.0 mph 84 % 0.00 in 0.00 W/m2
06:56 32.3 °F 28.0 °F 30.15 in ESE 6.0 mph 9.0 mph 84 % 0.00 in 0.00 W/m2
07:01 32.3 °F 28.0 °F 30.15 in East 5.0 mph 6.0 mph 84 % 0.00 in 0.00 W/m2
07:06 32.3 °F 28.0 °F 30.15 in Calm   9.0 mph 84 % 0.00 in 0.00 W/m2
07:11 32.3 °F 28.0 °F 30.15 in East 2.0 mph 8.0 mph 84 % 0.00 in 0.00 W/m2
07:16 32.3 °F 28.0 °F 30.15 in East 7.0 mph 9.0 mph 84 % 0.00 in 5.00 W/m2
07:21 32.3 °F 28.0 °F 30.15 in East 5.0 mph 8.0 mph 84 % 0.00 in 7.00 W/m2
07:26 32.3 °F 28.0 °F 30.15 in Calm   6.0 mph 84 % 0.00 in 11.00 W/m2
07:32 32.3 °F 28.0 °F 30.15 in Calm   7.0 mph 84 % 0.00 in 12.00 W/m2
07:37 32.3 °F 28.0 °F 30.15 in East 7.0 mph 7.0 mph 84 % 0.00 in 14.00 W/m2
07:42 32.3 °F 27.7 °F 30.16 in Calm   8.0 mph 83 % 0.00 in 18.00 W/m2
07:47 32.3 °F 27.7 °F 30.16 in East 1.0 mph 6.0 mph 83 % 0.00 in 26.00 W/m2
07:52 32.3 °F 27.4 °F 30.16 in ESE 6.0 mph 6.0 mph 82 % 0.00 in 39.00 W/m2
07:57 32.4 °F 27.8 °F 30.16 in Calm   6.0 mph 83 % 0.00 in 51.00 W/m2
08:02 32.4 °F 27.5 °F 30.16 in ESE 2.0 mph 5.0 mph 82 % 0.00 in 67.00 W/m2
08:07 32.5 °F 27.9 °F 30.17 in ESE 6.0 mph 7.0 mph 83 % 0.00 in 83.00 W/m2
08:12 32.6 °F 28.0 °F 30.17 in ESE 2.0 mph 4.0 mph 83 % 0.00 in 98.00 W/m2
08:17 32.6 °F 28.0 °F 30.17 in Calm   5.0 mph 83 % 0.00 in 109.00 W/m2
08:22 32.7 °F 28.1 °F 30.18 in Calm   4.0 mph 83 % 0.00 in 128.00 W/m2
08:27 32.8 °F 28.5 °F 30.18 in ESE 1.0 mph 4.0 mph 84 % 0.00 in 148.00 W/m2
08:32 32.8 °F 28.2 °F 30.18 in Calm   4.0 mph 83 % 0.00 in 165.00 W/m2
08:37 33.0 °F 28.7 °F 30.18 in Calm   4.0 mph 84 % 0.00 in 183.00 W/m2
08:42 33.1 °F 29.1 °F 30.18 in Calm   4.0 mph 85 % 0.00 in 199.00 W/m2
08:47 33.2 °F 28.9 °F 30.18 in Calm   4.0 mph 84 % 0.00 in 223.00 W/m2
08:52 33.3 °F 29.0 °F 30.19 in ESE 1.0 mph 5.0 mph 84 % 0.00 in 239.00 W/m2
Juneau County Weather
Compliments of Weather Underground - 3.5 mb
 WU-history PHP script courtesy of   Juneau County Weather.
powered by Cumulus v1.9.3 (1059)
Ambient Weather VWS v14.00
Top Contact Website Map Copyright © 2007 - 2018 Foresthillweather.com Never base important decisions on this or any weather information obtained from the Internet